sensor_id;sensor_type;location;lat;lon;timestamp;P1;durP1;ratioP1;P2;durP2;ratioP2
21352;SDS011;10834;52.268;6.770;2023-08-31T00:02:05;4.10;;;2.60;;
21352;SDS011;10834;52.268;6.770;2023-08-31T00:04:51;3.10;;;2.20;;
21352;SDS011;10834;52.268;6.770;2023-08-31T00:07:37;4.00;;;2.53;;
21352;SDS011;10834;52.268;6.770;2023-08-31T00:10:21;5.83;;;2.40;;
21352;SDS011;10834;52.268;6.770;2023-08-31T00:13:05;4.07;;;2.83;;
21352;SDS011;10834;52.268;6.770;2023-08-31T00:15:53;7.97;;;2.63;;
21352;SDS011;10834;52.268;6.770;2023-08-31T00:18:40;4.33;;;2.77;;
21352;SDS011;10834;52.268;6.770;2023-08-31T00:21:24;3.40;;;2.40;;
21352;SDS011;10834;52.268;6.770;2023-08-31T00:24:08;7.20;;;2.80;;
21352;SDS011;10834;52.268;6.770;2023-08-31T00:26:56;5.20;;;2.50;;
21352;SDS011;10834;52.268;6.770;2023-08-31T00:29:41;6.43;;;2.80;;
21352;SDS011;10834;52.268;6.770;2023-08-31T00:32:27;5.77;;;2.70;;
21352;SDS011;10834;52.268;6.770;2023-08-31T00:35:11;7.70;;;3.20;;
21352;SDS011;10834;52.268;6.770;2023-08-31T00:37:55;4.97;;;2.20;;
21352;SDS011;10834;52.268;6.770;2023-08-31T00:40:42;5.20;;;2.20;;
21352;SDS011;10834;52.268;6.770;2023-08-31T00:43:30;3.63;;;2.10;;
21352;SDS011;10834;52.268;6.770;2023-08-31T00:46:15;2.93;;;2.13;;
21352;SDS011;10834;52.268;6.770;2023-08-31T00:49:00;3.67;;;2.17;;
21352;SDS011;10834;52.268;6.770;2023-08-31T00:51:45;4.13;;;2.47;;
21352;SDS011;10834;52.268;6.770;2023-08-31T00:54:34;5.50;;;3.03;;
21352;SDS011;10834;52.268;6.770;2023-08-31T00:57:19;3.90;;;2.30;;
21352;SDS011;10834;52.268;6.770;2023-08-31T01:00:03;5.00;;;3.10;;
21352;SDS011;10834;52.268;6.770;2023-08-31T01:03:01;6.03;;;2.97;;
21352;SDS011;10834;52.268;6.770;2023-08-31T01:12:37;3.03;;;2.70;;
21352;SDS011;10834;52.268;6.770;2023-08-31T01:15:26;6.77;;;3.03;;
21352;SDS011;10834;52.268;6.770;2023-08-31T01:18:16;3.50;;;3.20;;
21352;SDS011;10834;52.268;6.770;2023-08-31T01:21:12;8.53;;;3.47;;
21352;SDS011;10834;52.268;6.770;2023-08-31T01:24:11;7.07;;;3.13;;
21352;SDS011;10834;52.268;6.770;2023-08-31T01:26:56;4.67;;;4.07;;
21352;SDS011;10834;52.268;6.770;2023-08-31T01:29:41;4.07;;;3.70;;
21352;SDS011;10834;52.268;6.770;2023-08-31T01:32:26;7.70;;;3.53;;
21352;SDS011;10834;52.268;6.770;2023-08-31T01:35:11;5.47;;;3.80;;
21352;SDS011;10834;52.268;6.770;2023-08-31T01:37:58;6.37;;;3.73;;
21352;SDS011;10834;52.268;6.770;2023-08-31T01:40:56;4.53;;;3.70;;
21352;SDS011;10834;52.268;6.770;2023-08-31T01:43:46;5.37;;;4.57;;
21352;SDS011;10834;52.268;6.770;2023-08-31T01:46:33;4.47;;;4.00;;
21352;SDS011;10834;52.268;6.770;2023-08-31T01:49:19;5.17;;;4.00;;
21352;SDS011;10834;52.268;6.770;2023-08-31T01:52:04;5.67;;;4.33;;
21352;SDS011;10834;52.268;6.770;2023-08-31T01:54:48;7.03;;;4.80;;
21352;SDS011;10834;52.268;6.770;2023-08-31T01:57:32;5.67;;;4.17;;
21352;SDS011;10834;52.268;6.770;2023-08-31T02:00:18;8.20;;;4.17;;
21352;SDS011;10834;52.268;6.770;2023-08-31T02:03:02;6.40;;;4.63;;
21352;SDS011;10834;52.268;6.770;2023-08-31T02:05:46;8.70;;;4.63;;
21352;SDS011;10834;52.268;6.770;2023-08-31T02:08:31;6.80;;;4.70;;
21352;SDS011;10834;52.268;6.770;2023-08-31T02:11:16;7.03;;;4.60;;
21352;SDS011;10834;52.268;6.770;2023-08-31T02:14:00;6.07;;;4.77;;
21352;SDS011;10834;52.268;6.770;2023-08-31T02:16:44;7.73;;;4.40;;
21352;SDS011;10834;52.268;6.770;2023-08-31T02:19:28;5.57;;;5.07;;
21352;SDS011;10834;52.268;6.770;2023-08-31T02:22:12;6.53;;;4.70;;
21352;SDS011;10834;52.268;6.770;2023-08-31T02:24:56;8.00;;;5.10;;
21352;SDS011;10834;52.268;6.770;2023-08-31T02:27:40;5.10;;;4.43;;
21352;SDS011;10834;52.268;6.770;2023-08-31T02:30:25;9.20;;;5.40;;
21352;SDS011;10834;52.268;6.770;2023-08-31T02:33:09;5.67;;;5.13;;
21352;SDS011;10834;52.268;6.770;2023-08-31T02:35:54;10.20;;;5.97;;
21352;SDS011;10834;52.268;6.770;2023-08-31T02:38:39;8.53;;;5.90;;
21352;SDS011;10834;52.268;6.770;2023-08-31T02:41:23;7.07;;;6.37;;
21352;SDS011;10834;52.268;6.770;2023-08-31T02:44:07;7.60;;;6.57;;
21352;SDS011;10834;52.268;6.770;2023-08-31T02:46:51;9.33;;;6.27;;
21352;SDS011;10834;52.268;6.770;2023-08-31T02:49:35;11.07;;;6.17;;
21352;SDS011;10834;52.268;6.770;2023-08-31T02:52:19;8.20;;;6.43;;
21352;SDS011;10834;52.268;6.770;2023-08-31T02:55:04;9.73;;;6.93;;
21352;SDS011;10834;52.268;6.770;2023-08-31T02:57:48;8.70;;;6.33;;
21352;SDS011;10834;52.268;6.770;2023-08-31T03:00:32;13.03;;;6.90;;
21352;SDS011;10834;52.268;6.770;2023-08-31T03:03:17;8.50;;;6.13;;
21352;SDS011;10834;52.268;6.770;2023-08-31T03:06:02;10.77;;;7.47;;
21352;SDS011;10834;52.268;6.770;2023-08-31T03:08:46;8.67;;;7.53;;
21352;SDS011;10834;52.268;6.770;2023-08-31T03:11:30;10.37;;;8.03;;
21352;SDS011;10834;52.268;6.770;2023-08-31T03:14:14;9.77;;;8.13;;
21352;SDS011;10834;52.268;6.770;2023-08-31T03:16:58;12.93;;;7.87;;
21352;SDS011;10834;52.268;6.770;2023-08-31T03:19:43;10.83;;;8.37;;
21352;SDS011;10834;52.268;6.770;2023-08-31T03:22:27;12.77;;;8.83;;
21352;SDS011;10834;52.268;6.770;2023-08-31T03:25:11;12.20;;;8.80;;
21352;SDS011;10834;52.268;6.770;2023-08-31T03:27:55;11.17;;;8.77;;
21352;SDS011;10834;52.268;6.770;2023-08-31T03:30:40;10.63;;;8.90;;
21352;SDS011;10834;52.268;6.770;2023-08-31T03:33:24;11.13;;;9.07;;
21352;SDS011;10834;52.268;6.770;2023-08-31T03:36:08;10.80;;;9.07;;
21352;SDS011;10834;52.268;6.770;2023-08-31T03:38:52;10.53;;;8.83;;
21352;SDS011;10834;52.268;6.770;2023-08-31T03:41:36;12.37;;;8.63;;
21352;SDS011;10834;52.268;6.770;2023-08-31T03:44:20;13.40;;;10.63;;
21352;SDS011;10834;52.268;6.770;2023-08-31T03:47:05;16.07;;;11.27;;
21352;SDS011;10834;52.268;6.770;2023-08-31T03:49:50;14.17;;;10.67;;
21352;SDS011;10834;52.268;6.770;2023-08-31T03:52:34;13.97;;;10.90;;
21352;SDS011;10834;52.268;6.770;2023-08-31T03:55:18;13.93;;;11.10;;
21352;SDS011;10834;52.268;6.770;2023-08-31T03:58:03;14.23;;;11.73;;
21352;SDS011;10834;52.268;6.770;2023-08-31T04:00:50;20.70;;;12.53;;
21352;SDS011;10834;52.268;6.770;2023-08-31T04:03:34;16.73;;;13.13;;
21352;SDS011;10834;52.268;6.770;2023-08-31T04:06:19;17.53;;;13.50;;
21352;SDS011;10834;52.268;6.770;2023-08-31T04:09:03;17.83;;;12.80;;
21352;SDS011;10834;52.268;6.770;2023-08-31T04:11:48;18.30;;;13.33;;
21352;SDS011;10834;52.268;6.770;2023-08-31T04:14:32;20.03;;;14.87;;
21352;SDS011;10834;52.268;6.770;2023-08-31T04:17:16;20.03;;;16.17;;
21352;SDS011;10834;52.268;6.770;2023-08-31T04:20:01;21.17;;;16.43;;
21352;SDS011;10834;52.268;6.770;2023-08-31T04:22:47;21.33;;;15.53;;
21352;SDS011;10834;52.268;6.770;2023-08-31T04:25:31;21.93;;;15.17;;
21352;SDS011;10834;52.268;6.770;2023-08-31T04:28:15;21.93;;;16.43;;
21352;SDS011;10834;52.268;6.770;2023-08-31T04:30:59;23.13;;;16.57;;
21352;SDS011;10834;52.268;6.770;2023-08-31T04:33:43;22.50;;;16.50;;
21352;SDS011;10834;52.268;6.770;2023-08-31T04:36:29;23.00;;;15.83;;
21352;SDS011;10834;52.268;6.770;2023-08-31T04:39:13;23.47;;;16.93;;
21352;SDS011;10834;52.268;6.770;2023-08-31T04:41:57;21.30;;;16.10;;
21352;SDS011;10834;52.268;6.770;2023-08-31T04:44:42;20.23;;;14.37;;
21352;SDS011;10834;52.268;6.770;2023-08-31T04:47:26;21.17;;;16.17;;
21352;SDS011;10834;52.268;6.770;2023-08-31T04:50:11;19.30;;;14.27;;
21352;SDS011;10834;52.268;6.770;2023-08-31T04:52:55;21.03;;;14.83;;
21352;SDS011;10834;52.268;6.770;2023-08-31T04:55:40;22.30;;;15.23;;
21352;SDS011;10834;52.268;6.770;2023-08-31T04:58:24;17.53;;;14.03;;
21352;SDS011;10834;52.268;6.770;2023-08-31T05:01:08;21.17;;;14.60;;
21352;SDS011;10834;52.268;6.770;2023-08-31T05:03:53;15.87;;;13.37;;
21352;SDS011;10834;52.268;6.770;2023-08-31T05:06:37;19.20;;;14.33;;
21352;SDS011;10834;52.268;6.770;2023-08-31T05:09:21;21.80;;;14.70;;
21352;SDS011;10834;52.268;6.770;2023-08-31T05:12:06;20.70;;;14.50;;
21352;SDS011;10834;52.268;6.770;2023-08-31T05:14:51;20.50;;;13.17;;
21352;SDS011;10834;52.268;6.770;2023-08-31T05:17:35;17.87;;;13.40;;
21352;SDS011;10834;52.268;6.770;2023-08-31T05:20:19;14.20;;;12.37;;
21352;SDS011;10834;52.268;6.770;2023-08-31T05:23:06;13.27;;;11.90;;
21352;SDS011;10834;52.268;6.770;2023-08-31T05:25:50;16.67;;;13.07;;
21352;SDS011;10834;52.268;6.770;2023-08-31T05:28:34;14.80;;;11.93;;
21352;SDS011;10834;52.268;6.770;2023-08-31T05:31:18;14.77;;;11.93;;
21352;SDS011;10834;52.268;6.770;2023-08-31T05:34:03;14.20;;;10.93;;
21352;SDS011;10834;52.268;6.770;2023-08-31T05:36:47;13.07;;;10.87;;
21352;SDS011;10834;52.268;6.770;2023-08-31T05:39:31;13.23;;;10.70;;
21352;SDS011;10834;52.268;6.770;2023-08-31T05:42:16;17.00;;;10.80;;
21352;SDS011;10834;52.268;6.770;2023-08-31T05:45:01;14.93;;;10.20;;
21352;SDS011;10834;52.268;6.770;2023-08-31T05:47:45;12.93;;;9.83;;
21352;SDS011;10834;52.268;6.770;2023-08-31T05:50:30;12.37;;;10.07;;
21352;SDS011;10834;52.268;6.770;2023-08-31T05:53:14;16.30;;;10.93;;
21352;SDS011;10834;52.268;6.770;2023-08-31T05:55:58;20.03;;;12.70;;
21352;SDS011;10834;52.268;6.770;2023-08-31T05:58:49;16.10;;;11.10;;
21352;SDS011;10834;52.268;6.770;2023-08-31T06:01:34;14.27;;;11.60;;
21352;SDS011;10834;52.268;6.770;2023-08-31T06:04:20;14.57;;;11.33;;
21352;SDS011;10834;52.268;6.770;2023-08-31T06:07:04;13.93;;;12.07;;
21352;SDS011;10834;52.268;6.770;2023-08-31T06:09:48;13.97;;;11.87;;
21352;SDS011;10834;52.268;6.770;2023-08-31T06:12:32;14.97;;;12.07;;
21352;SDS011;10834;52.268;6.770;2023-08-31T06:15:17;17.73;;;13.17;;
21352;SDS011;10834;52.268;6.770;2023-08-31T06:18:01;16.90;;;14.53;;
21352;SDS011;10834;52.268;6.770;2023-08-31T06:20:45;19.27;;;15.07;;
21352;SDS011;10834;52.268;6.770;2023-08-31T06:23:29;17.87;;;14.37;;
21352;SDS011;10834;52.268;6.770;2023-08-31T06:26:13;16.60;;;14.40;;
21352;SDS011;10834;52.268;6.770;2023-08-31T06:28:57;19.67;;;14.83;;
21352;SDS011;10834;52.268;6.770;2023-08-31T06:31:41;16.87;;;13.80;;
21352;SDS011;10834;52.268;6.770;2023-08-31T06:34:26;16.20;;;13.40;;
21352;SDS011;10834;52.268;6.770;2023-08-31T06:37:10;15.53;;;13.00;;
21352;SDS011;10834;52.268;6.770;2023-08-31T06:39:54;19.73;;;12.30;;
21352;SDS011;10834;52.268;6.770;2023-08-31T06:42:38;14.23;;;11.47;;
21352;SDS011;10834;52.268;6.770;2023-08-31T06:45:23;15.37;;;12.50;;
21352;SDS011;10834;52.268;6.770;2023-08-31T06:48:07;17.07;;;13.07;;
21352;SDS011;10834;52.268;6.770;2023-08-31T06:50:52;17.53;;;13.47;;
21352;SDS011;10834;52.268;6.770;2023-08-31T06:53:36;13.50;;;11.77;;
21352;SDS011;10834;52.268;6.770;2023-08-31T06:56:20;15.53;;;10.50;;
21352;SDS011;10834;52.268;6.770;2023-08-31T06:59:04;13.77;;;11.00;;
21352;SDS011;10834;52.268;6.770;2023-08-31T07:01:49;14.50;;;10.73;;
21352;SDS011;10834;52.268;6.770;2023-08-31T07:04:34;13.07;;;10.27;;
21352;SDS011;10834;52.268;6.770;2023-08-31T07:07:18;14.10;;;9.80;;
21352;SDS011;10834;52.268;6.770;2023-08-31T07:10:02;10.97;;;8.50;;
21352;SDS011;10834;52.268;6.770;2023-08-31T07:12:46;11.37;;;8.80;;
21352;SDS011;10834;52.268;6.770;2023-08-31T07:15:30;12.83;;;9.47;;
21352;SDS011;10834;52.268;6.770;2023-08-31T07:18:15;12.07;;;8.97;;
21352;SDS011;10834;52.268;6.770;2023-08-31T07:20:59;11.23;;;8.60;;
21352;SDS011;10834;52.268;6.770;2023-08-31T07:23:43;14.90;;;9.47;;
21352;SDS011;10834;52.268;6.770;2023-08-31T07:26:27;11.83;;;8.47;;
21352;SDS011;10834;52.268;6.770;2023-08-31T07:29:12;10.67;;;7.70;;
21352;SDS011;10834;52.268;6.770;2023-08-31T07:31:56;11.07;;;9.00;;
21352;SDS011;10834;52.268;6.770;2023-08-31T07:34:41;9.77;;;7.53;;
21352;SDS011;10834;52.268;6.770;2023-08-31T07:37:25;8.00;;;7.20;;
21352;SDS011;10834;52.268;6.770;2023-08-31T07:40:09;10.27;;;7.37;;
21352;SDS011;10834;52.268;6.770;2023-08-31T07:42:53;8.50;;;7.40;;
21352;SDS011;10834;52.268;6.770;2023-08-31T07:45:38;7.85;;;6.30;;
21352;SDS011;10834;52.268;6.770;2023-08-31T07:48:22;9.98;;;6.00;;
21352;SDS011;10834;52.268;6.770;2023-08-31T07:51:06;7.20;;;6.23;;
21352;SDS011;10834;52.268;6.770;2023-08-31T07:53:50;8.30;;;5.80;;
21352;SDS011;10834;52.268;6.770;2023-08-31T07:56:35;7.70;;;6.23;;
21352;SDS011;10834;52.268;6.770;2023-08-31T07:59:19;6.37;;;5.73;;
21352;SDS011;10834;52.268;6.770;2023-08-31T08:02:04;6.63;;;5.03;;
21352;SDS011;10834;52.268;6.770;2023-08-31T08:04:48;7.93;;;5.17;;
21352;SDS011;10834;52.268;6.770;2023-08-31T08:07:32;9.50;;;5.23;;
21352;SDS011;10834;52.268;6.770;2023-08-31T08:10:16;6.53;;;5.40;;
21352;SDS011;10834;52.268;6.770;2023-08-31T08:13:01;9.20;;;5.27;;
21352;SDS011;10834;52.268;6.770;2023-08-31T08:15:45;8.87;;;5.20;;
21352;SDS011;10834;52.268;6.770;2023-08-31T08:18:29;6.17;;;5.07;;
21352;SDS011;10834;52.268;6.770;2023-08-31T08:21:14;6.30;;;4.83;;
21352;SDS011;10834;52.268;6.770;2023-08-31T08:23:58;6.28;;;4.60;;
21352;SDS011;10834;52.268;6.770;2023-08-31T08:26:42;6.97;;;3.55;;
21352;SDS011;10834;52.268;6.770;2023-08-31T08:29:26;6.40;;;3.40;;
21352;SDS011;10834;52.268;6.770;2023-08-31T08:32:10;4.10;;;2.80;;
21352;SDS011;10834;52.268;6.770;2023-08-31T08:34:55;3.83;;;2.72;;
21352;SDS011;10834;52.268;6.770;2023-08-31T08:37:39;3.70;;;3.03;;
21352;SDS011;10834;52.268;6.770;2023-08-31T08:40:24;6.35;;;2.17;;
21352;SDS011;10834;52.268;6.770;2023-08-31T08:43:08;3.55;;;2.40;;
21352;SDS011;10834;52.268;6.770;2023-08-31T08:45:54;4.95;;;2.33;;
21352;SDS011;10834;52.268;6.770;2023-08-31T08:48:42;5.10;;;1.95;;
21352;SDS011;10834;52.268;6.770;2023-08-31T08:51:28;5.30;;;2.10;;
21352;SDS011;10834;52.268;6.770;2023-08-31T08:54:14;2.63;;;1.70;;
21352;SDS011;10834;52.268;6.770;2023-08-31T08:56:58;4.35;;;2.22;;
21352;SDS011;10834;52.268;6.770;2023-08-31T08:59:42;2.78;;;1.77;;
21352;SDS011;10834;52.268;6.770;2023-08-31T09:02:26;4.97;;;2.35;;
21352;SDS011;10834;52.268;6.770;2023-08-31T09:05:10;5.53;;;1.95;;
21352;SDS011;10834;52.268;6.770;2023-08-31T09:08:13;7.63;;;2.13;;
21352;SDS011;10834;52.268;6.770;2023-08-31T09:10:58;4.00;;;1.88;;
21352;SDS011;10834;52.268;6.770;2023-08-31T09:13:43;2.65;;;2.17;;
21352;SDS011;10834;52.268;6.770;2023-08-31T09:16:28;3.30;;;1.70;;
21352;SDS011;10834;52.268;6.770;2023-08-31T09:19:23;2.45;;;1.60;;
21352;SDS011;10834;52.268;6.770;2023-08-31T09:22:10;3.97;;;2.00;;
21352;SDS011;10834;52.268;6.770;2023-08-31T09:24:54;2.85;;;1.80;;
21352;SDS011;10834;52.268;6.770;2023-08-31T09:27:38;2.60;;;1.50;;
21352;SDS011;10834;52.268;6.770;2023-08-31T09:30:24;5.40;;;1.80;;
21352;SDS011;10834;52.268;6.770;2023-08-31T09:33:08;3.78;;;1.50;;
21352;SDS011;10834;52.268;6.770;2023-08-31T09:35:57;4.65;;;1.58;;
21352;SDS011;10834;52.268;6.770;2023-08-31T09:38:47;1.95;;;1.45;;
21352;SDS011;10834;52.268;6.770;2023-08-31T09:41:32;3.35;;;2.22;;
21352;SDS011;10834;52.268;6.770;2023-08-31T09:44:18;1.92;;;1.83;;
21352;SDS011;10834;52.268;6.770;2023-08-31T09:47:03;1.48;;;1.10;;
21352;SDS011;10834;52.268;6.770;2023-08-31T09:49:47;3.55;;;1.35;;
21352;SDS011;10834;52.268;6.770;2023-08-31T09:52:32;2.47;;;1.17;;
21352;SDS011;10834;52.268;6.770;2023-08-31T09:55:17;3.35;;;1.17;;
21352;SDS011;10834;52.268;6.770;2023-08-31T09:58:02;2.90;;;0.85;;
21352;SDS011;10834;52.268;6.770;2023-08-31T10:00:50;2.60;;;0.88;;
21352;SDS011;10834;52.268;6.770;2023-08-31T10:03:36;7.18;;;1.63;;
21352;SDS011;10834;52.268;6.770;2023-08-31T10:06:21;2.17;;;0.82;;
21352;SDS011;10834;52.268;6.770;2023-08-31T10:09:06;4.72;;;1.13;;
21352;SDS011;10834;52.268;6.770;2023-08-31T10:11:53;3.53;;;1.02;;
21352;SDS011;10834;52.268;6.770;2023-08-31T10:14:38;4.30;;;0.93;;
21352;SDS011;10834;52.268;6.770;2023-08-31T10:17:23;4.55;;;1.10;;
21352;SDS011;10834;52.268;6.770;2023-08-31T10:20:08;2.97;;;1.02;;
21352;SDS011;10834;52.268;6.770;2023-08-31T10:22:58;3.88;;;1.10;;
21352;SDS011;10834;52.268;6.770;2023-08-31T10:28:38;2.15;;;1.10;;
21352;SDS011;10834;52.268;6.770;2023-08-31T10:31:24;4.57;;;1.15;;
21352;SDS011;10834;52.268;6.770;2023-08-31T10:34:16;2.00;;;1.20;;
21352;SDS011;10834;52.268;6.770;2023-08-31T10:37:00;4.25;;;1.90;;
21352;SDS011;10834;52.268;6.770;2023-08-31T10:39:46;5.45;;;1.50;;
21352;SDS011;10834;52.268;6.770;2023-08-31T10:42:30;4.22;;;1.30;;
21352;SDS011;10834;52.268;6.770;2023-08-31T10:45:14;2.92;;;1.23;;
21352;SDS011;10834;52.268;6.770;2023-08-31T10:48:04;6.63;;;1.75;;
21352;SDS011;10834;52.268;6.770;2023-08-31T10:50:50;3.78;;;1.40;;
21352;SDS011;10834;52.268;6.770;2023-08-31T10:53:35;2.53;;;1.40;;
21352;SDS011;10834;52.268;6.770;2023-08-31T10:56:19;2.20;;;1.20;;
21352;SDS011;10834;52.268;6.770;2023-08-31T10:59:03;2.88;;;1.35;;
21352;SDS011;10834;52.268;6.770;2023-08-31T11:01:51;2.70;;;0.98;;
21352;SDS011;10834;52.268;6.770;2023-08-31T11:04:59;2.75;;;0.90;;
21352;SDS011;10834;52.268;6.770;2023-08-31T11:08:04;3.55;;;1.20;;
21352;SDS011;10834;52.268;6.770;2023-08-31T11:10:48;4.90;;;1.65;;
21352;SDS011;10834;52.268;6.770;2023-08-31T11:13:32;2.75;;;1.10;;
21352;SDS011;10834;52.268;6.770;2023-08-31T11:16:16;5.75;;;1.98;;
21352;SDS011;10834;52.268;6.770;2023-08-31T11:19:01;4.40;;;1.60;;
21352;SDS011;10834;52.268;6.770;2023-08-31T11:21:47;3.95;;;1.10;;
21352;SDS011;10834;52.268;6.770;2023-08-31T11:24:32;4.38;;;1.17;;
21352;SDS011;10834;52.268;6.770;2023-08-31T11:27:20;1.13;;;0.68;;
21352;SDS011;10834;52.268;6.770;2023-08-31T11:30:17;1.33;;;0.65;;
21352;SDS011;10834;52.268;6.770;2023-08-31T11:33:08;3.78;;;0.73;;
21352;SDS011;10834;52.268;6.770;2023-08-31T11:35:54;1.70;;;0.63;;
21352;SDS011;10834;52.268;6.770;2023-08-31T11:38:39;3.20;;;0.65;;
21352;SDS011;10834;52.268;6.770;2023-08-31T11:41:23;3.85;;;1.05;;
21352;SDS011;10834;52.268;6.770;2023-08-31T11:44:08;5.05;;;1.00;;
21352;SDS011;10834;52.268;6.770;2023-08-31T11:46:53;2.20;;;1.10;;
21352;SDS011;10834;52.268;6.770;2023-08-31T11:49:38;4.60;;;1.23;;
21352;SDS011;10834;52.268;6.770;2023-08-31T11:52:26;3.67;;;1.15;;
21352;SDS011;10834;52.268;6.770;2023-08-31T11:55:11;2.63;;;1.23;;
21352;SDS011;10834;52.268;6.770;2023-08-31T11:57:56;3.47;;;1.20;;
21352;SDS011;10834;52.268;6.770;2023-08-31T12:00:42;2.03;;;1.08;;
21352;SDS011;10834;52.268;6.770;2023-08-31T12:03:27;3.50;;;1.35;;
21352;SDS011;10834;52.268;6.770;2023-08-31T12:06:16;1.63;;;0.90;;
21352;SDS011;10834;52.268;6.770;2023-08-31T12:09:02;3.92;;;1.40;;
21352;SDS011;10834;52.268;6.770;2023-08-31T12:11:51;3.47;;;1.52;;
21352;SDS011;10834;52.268;6.770;2023-08-31T12:14:39;2.78;;;1.15;;
21352;SDS011;10834;52.268;6.770;2023-08-31T12:17:23;2.35;;;1.42;;
21352;SDS011;10834;52.268;6.770;2023-08-31T12:20:08;5.88;;;2.50;;
21352;SDS011;10834;52.268;6.770;2023-08-31T12:22:53;3.13;;;1.60;;
21352;SDS011;10834;52.268;6.770;2023-08-31T12:25:38;3.13;;;1.40;;
21352;SDS011;10834;52.268;6.770;2023-08-31T12:28:23;3.40;;;1.23;;
21352;SDS011;10834;52.268;6.770;2023-08-31T12:31:08;3.13;;;1.30;;
21352;SDS011;10834;52.268;6.770;2023-08-31T12:33:52;3.38;;;1.45;;
21352;SDS011;10834;52.268;6.770;2023-08-31T12:36:37;2.97;;;1.20;;
21352;SDS011;10834;52.268;6.770;2023-08-31T12:39:24;3.90;;;1.00;;
21352;SDS011;10834;52.268;6.770;2023-08-31T12:42:08;2.10;;;0.65;;
21352;SDS011;10834;52.268;6.770;2023-08-31T12:44:52;4.22;;;1.73;;
21352;SDS011;10834;52.268;6.770;2023-08-31T12:47:36;2.50;;;0.68;;
21352;SDS011;10834;52.268;6.770;2023-08-31T12:50:20;3.25;;;1.20;;
21352;SDS011;10834;52.268;6.770;2023-08-31T12:53:05;4.85;;;1.30;;
21352;SDS011;10834;52.268;6.770;2023-08-31T12:55:49;4.05;;;0.70;;
21352;SDS011;10834;52.268;6.770;2023-08-31T12:58:33;4.13;;;0.82;;
21352;SDS011;10834;52.268;6.770;2023-08-31T13:01:18;1.58;;;0.70;;
21352;SDS011;10834;52.268;6.770;2023-08-31T13:04:03;2.75;;;0.73;;
21352;SDS011;10834;52.268;6.770;2023-08-31T13:06:48;2.13;;;0.60;;
21352;SDS011;10834;52.268;6.770;2023-08-31T13:09:33;8.45;;;0.80;;
21352;SDS011;10834;52.268;6.770;2023-08-31T13:12:17;3.50;;;0.88;;
21352;SDS011;10834;52.268;6.770;2023-08-31T13:15:02;4.82;;;0.98;;
21352;SDS011;10834;52.268;6.770;2023-08-31T13:17:46;4.53;;;0.80;;
21352;SDS011;10834;52.268;6.770;2023-08-31T13:20:31;2.75;;;0.70;;
21352;SDS011;10834;52.268;6.770;2023-08-31T13:23:16;4.28;;;0.77;;
21352;SDS011;10834;52.268;6.770;2023-08-31T13:26:00;2.83;;;0.80;;
21352;SDS011;10834;52.268;6.770;2023-08-31T13:28:44;2.15;;;0.73;;
21352;SDS011;10834;52.268;6.770;2023-08-31T13:31:28;7.43;;;1.45;;
21352;SDS011;10834;52.268;6.770;2023-08-31T13:34:12;1.63;;;0.40;;
21352;SDS011;10834;52.268;6.770;2023-08-31T13:36:58;4.65;;;1.20;;
21352;SDS011;10834;52.268;6.770;2023-08-31T13:39:42;4.65;;;1.25;;
21352;SDS011;10834;52.268;6.770;2023-08-31T13:42:33;2.60;;;0.95;;
21352;SDS011;10834;52.268;6.770;2023-08-31T13:45:21;3.60;;;0.98;;
21352;SDS011;10834;52.268;6.770;2023-08-31T13:48:05;2.30;;;0.70;;
21352;SDS011;10834;52.268;6.770;2023-08-31T13:50:50;6.13;;;1.13;;
21352;SDS011;10834;52.268;6.770;2023-08-31T13:53:34;1.33;;;0.70;;
21352;SDS011;10834;52.268;6.770;2023-08-31T13:56:17;7.65;;;1.25;;
21352;SDS011;10834;52.268;6.770;2023-08-31T13:59:02;4.78;;;1.02;;
21352;SDS011;10834;52.268;6.770;2023-08-31T14:01:47;1.77;;;0.60;;
21352;SDS011;10834;52.268;6.770;2023-08-31T14:04:31;2.13;;;1.00;;
21352;SDS011;10834;52.268;6.770;2023-08-31T14:07:15;2.72;;;0.82;;
21352;SDS011;10834;52.268;6.770;2023-08-31T14:10:00;4.20;;;1.25;;
21352;SDS011;10834;52.268;6.770;2023-08-31T14:12:46;3.67;;;1.10;;
21352;SDS011;10834;52.268;6.770;2023-08-31T14:15:30;2.42;;;1.08;;
21352;SDS011;10834;52.268;6.770;2023-08-31T14:18:14;1.90;;;0.70;;
21352;SDS011;10834;52.268;6.770;2023-08-31T14:20:58;2.58;;;1.00;;
21352;SDS011;10834;52.268;6.770;2023-08-31T14:23:44;1.05;;;0.68;;
21352;SDS011;10834;52.268;6.770;2023-08-31T14:26:29;5.75;;;1.05;;
21352;SDS011;10834;52.268;6.770;2023-08-31T14:29:13;4.63;;;1.20;;
21352;SDS011;10834;52.268;6.770;2023-08-31T14:31:57;2.35;;;0.82;;
21352;SDS011;10834;52.268;6.770;2023-08-31T14:34:41;4.15;;;1.02;;
21352;SDS011;10834;52.268;6.770;2023-08-31T14:37:25;4.45;;;1.00;;
21352;SDS011;10834;52.268;6.770;2023-08-31T14:40:10;2.15;;;1.13;;
21352;SDS011;10834;52.268;6.770;2023-08-31T14:42:54;2.70;;;0.80;;
21352;SDS011;10834;52.268;6.770;2023-08-31T14:45:38;5.18;;;0.95;;
21352;SDS011;10834;52.268;6.770;2023-08-31T14:48:22;5.78;;;1.33;;
21352;SDS011;10834;52.268;6.770;2023-08-31T14:51:06;3.15;;;1.25;;
21352;SDS011;10834;52.268;6.770;2023-08-31T14:53:52;3.40;;;0.95;;
21352;SDS011;10834;52.268;6.770;2023-08-31T14:56:36;2.58;;;1.27;;
21352;SDS011;10834;52.268;6.770;2023-08-31T14:59:20;2.85;;;0.90;;
21352;SDS011;10834;52.268;6.770;2023-08-31T15:02:05;3.30;;;0.70;;
21352;SDS011;10834;52.268;6.770;2023-08-31T15:04:50;3.83;;;1.05;;
21352;SDS011;10834;52.268;6.770;2023-08-31T15:07:34;4.18;;;1.30;;
21352;SDS011;10834;52.268;6.770;2023-08-31T15:10:18;3.63;;;1.00;;
21352;SDS011;10834;52.268;6.770;2023-08-31T15:13:02;2.40;;;1.08;;
21352;SDS011;10834;52.268;6.770;2023-08-31T15:15:47;1.45;;;0.80;;
21352;SDS011;10834;52.268;6.770;2023-08-31T15:18:32;6.95;;;1.38;;
21352;SDS011;10834;52.268;6.770;2023-08-31T15:21:16;5.68;;;1.38;;
21352;SDS011;10834;52.268;6.770;2023-08-31T15:24:00;3.58;;;1.48;;
21352;SDS011;10834;52.268;6.770;2023-08-31T15:26:46;4.45;;;1.35;;
21352;SDS011;10834;52.268;6.770;2023-08-31T15:29:30;5.47;;;1.23;;
21352;SDS011;10834;52.268;6.770;2023-08-31T15:32:15;5.72;;;1.27;;
21352;SDS011;10834;52.268;6.770;2023-08-31T15:34:59;3.80;;;0.88;;
21352;SDS011;10834;52.268;6.770;2023-08-31T15:37:43;4.30;;;1.35;;
21352;SDS011;10834;52.268;6.770;2023-08-31T15:40:31;4.00;;;1.15;;
21352;SDS011;10834;52.268;6.770;2023-08-31T15:43:15;1.30;;;1.20;;
21352;SDS011;10834;52.268;6.770;2023-08-31T15:46:01;1.65;;;1.02;;
21352;SDS011;10834;52.268;6.770;2023-08-31T15:48:47;3.97;;;0.88;;
21352;SDS011;10834;52.268;6.770;2023-08-31T15:51:32;5.60;;;1.33;;
21352;SDS011;10834;52.268;6.770;2023-08-31T15:54:16;5.30;;;0.90;;
21352;SDS011;10834;52.268;6.770;2023-08-31T15:57:01;1.58;;;0.57;;
21352;SDS011;10834;52.268;6.770;2023-08-31T15:59:46;4.18;;;0.90;;
21352;SDS011;10834;52.268;6.770;2023-08-31T16:02:31;5.10;;;1.25;;
21352;SDS011;10834;52.268;6.770;2023-08-31T16:05:16;4.72;;;1.10;;
21352;SDS011;10834;52.268;6.770;2023-08-31T16:08:01;3.72;;;0.98;;
21352;SDS011;10834;52.268;6.770;2023-08-31T16:10:46;2.97;;;0.95;;
21352;SDS011;10834;52.268;6.770;2023-08-31T16:13:30;2.22;;;0.80;;
21352;SDS011;10834;52.268;6.770;2023-08-31T16:16:15;2.17;;;1.23;;
21352;SDS011;10834;52.268;6.770;2023-08-31T16:18:59;2.03;;;0.93;;
21352;SDS011;10834;52.268;6.770;2023-08-31T16:21:44;5.43;;;1.05;;
21352;SDS011;10834;52.268;6.770;2023-08-31T16:24:28;2.35;;;0.80;;
21352;SDS011;10834;52.268;6.770;2023-08-31T16:27:12;2.40;;;0.70;;
21352;SDS011;10834;52.268;6.770;2023-08-31T16:29:57;4.57;;;0.75;;
21352;SDS011;10834;52.268;6.770;2023-08-31T16:32:42;2.67;;;1.60;;
21352;SDS011;10834;52.268;6.770;2023-08-31T16:35:27;2.58;;;0.60;;
21352;SDS011;10834;52.268;6.770;2023-08-31T16:38:12;4.47;;;0.88;;